sensor_id;sensor_type;location;lat;lon;timestamp;temperature;humidity
1602;DHT22;794;48.592;9.634;2022-12-24T00:00:39;10.40;1.00
1602;DHT22;794;48.592;9.634;2022-12-24T00:03:06;10.50;1.00
1602;DHT22;794;48.592;9.634;2022-12-24T00:05:36;10.40;1.00
1602;DHT22;794;48.592;9.634;2022-12-24T00:08:03;10.50;1.00
1602;DHT22;794;48.592;9.634;2022-12-24T00:10:30;10.30;1.00
1602;DHT22;794;48.592;9.634;2022-12-24T00:12:58;10.70;1.00
1602;DHT22;794;48.592;9.634;2022-12-24T00:15:25;10.40;1.00
1602;DHT22;794;48.592;9.634;2022-12-24T00:17:52;10.40;1.00
1602;DHT22;794;48.592;9.634;2022-12-24T00:20:18;10.50;1.00
1602;DHT22;794;48.592;9.634;2022-12-24T00:22:47;10.20;1.00
1602;DHT22;794;48.592;9.634;2022-12-24T00:25:14;10.10;1.00
1602;DHT22;794;48.592;9.634;2022-12-24T00:27:41;10.30;1.00
1602;DHT22;794;48.592;9.634;2022-12-24T00:30:08;10.20;1.00
1602;DHT22;794;48.592;9.634;2022-12-24T00:32:35;10.00;1.00
1602;DHT22;794;48.592;9.634;2022-12-24T00:35:03;10.20;1.00
1602;DHT22;794;48.592;9.634;2022-12-24T00:37:31;10.30;1.00
1602;DHT22;794;48.592;9.634;2022-12-24T00:39:59;10.30;1.00
1602;DHT22;794;48.592;9.634;2022-12-24T00:42:26;10.30;1.00
1602;DHT22;794;48.592;9.634;2022-12-24T00:44:53;10.70;1.00
1602;DHT22;794;48.592;9.634;2022-12-24T00:47:20;10.60;1.00
1602;DHT22;794;48.592;9.634;2022-12-24T00:49:47;10.40;1.00
1602;DHT22;794;48.592;9.634;2022-12-24T00:52:14;10.10;1.00
1602;DHT22;794;48.592;9.634;2022-12-24T00:54:41;10.30;1.00
1602;DHT22;794;48.592;9.634;2022-12-24T00:57:09;8.70;1.00
1602;DHT22;794;48.592;9.634;2022-12-24T00:59:36;10.40;1.00
1602;DHT22;794;48.592;9.634;2022-12-24T01:02:03;10.10;1.00
1602;DHT22;794;48.592;9.634;2022-12-24T01:04:30;10.30;1.00
1602;DHT22;794;48.592;9.634;2022-12-24T01:07:15;10.20;1.00
1602;DHT22;794;48.592;9.634;2022-12-24T01:09:42;9.80;1.00
1602;DHT22;794;48.592;9.634;2022-12-24T01:12:10;10.30;1.00
1602;DHT22;794;48.592;9.634;2022-12-24T01:14:37;10.20;1.00
1602;DHT22;794;48.592;9.634;2022-12-24T01:17:04;10.10;1.00
1602;DHT22;794;48.592;9.634;2022-12-24T01:19:32;10.00;1.00
1602;DHT22;794;48.592;9.634;2022-12-24T01:21:59;10.30;1.00
1602;DHT22;794;48.592;9.634;2022-12-24T01:24:27;10.10;1.00
1602;DHT22;794;48.592;9.634;2022-12-24T01:26:54;10.10;1.00
1602;DHT22;794;48.592;9.634;2022-12-24T01:29:22;10.20;1.00
1602;DHT22;794;48.592;9.634;2022-12-24T01:31:49;10.00;1.00
1602;DHT22;794;48.592;9.634;2022-12-24T01:34:16;10.10;1.00
1602;DHT22;794;48.592;9.634;2022-12-24T01:36:43;10.00;1.00
1602;DHT22;794;48.592;9.634;2022-12-24T01:39:10;10.20;1.00
1602;DHT22;794;48.592;9.634;2022-12-24T01:41:37;10.10;1.00
1602;DHT22;794;48.592;9.634;2022-12-24T01:44:25;10.20;1.00
1602;DHT22;794;48.592;9.634;2022-12-24T01:46:55;10.40;1.00
1602;DHT22;794;48.592;9.634;2022-12-24T01:49:24;10.10;1.00
1602;DHT22;794;48.592;9.634;2022-12-24T01:51:53;10.20;1.00
1602;DHT22;794;48.592;9.634;2022-12-24T01:54:23;10.30;1.00
1602;DHT22;794;48.592;9.634;2022-12-24T01:56:53;10.60;1.00
1602;DHT22;794;48.592;9.634;2022-12-24T01:59:24;10.40;1.00
1602;DHT22;794;48.592;9.634;2022-12-24T02:01:52;10.10;1.00
1602;DHT22;794;48.592;9.634;2022-12-24T02:04:27;10.30;1.00
1602;DHT22;794;48.592;9.634;2022-12-24T02:06:56;10.00;1.00
1602;DHT22;794;48.592;9.634;2022-12-24T02:09:23;10.20;1.00
1602;DHT22;794;48.592;9.634;2022-12-24T02:11:51;10.50;1.00
1602;DHT22;794;48.592;9.634;2022-12-24T02:14:18;10.00;1.00
1602;DHT22;794;48.592;9.634;2022-12-24T02:16:52;10.50;1.00
1602;DHT22;794;48.592;9.634;2022-12-24T02:22:51;10.20;1.00
1602;DHT22;794;48.592;9.634;2022-12-24T02:25:33;10.20;1.00
1602;DHT22;794;48.592;9.634;2022-12-24T02:28:14;10.00;1.00
1602;DHT22;794;48.592;9.634;2022-12-24T02:30:47;10.10;1.00
1602;DHT22;794;48.592;9.634;2022-12-24T02:33:23;10.50;1.00
1602;DHT22;794;48.592;9.634;2022-12-24T02:35:54;9.90;1.00
1602;DHT22;794;48.592;9.634;2022-12-24T02:38:25;10.30;1.00
1602;DHT22;794;48.592;9.634;2022-12-24T02:40:57;10.00;1.00
1602;DHT22;794;48.592;9.634;2022-12-24T02:43:28;10.40;1.00
1602;DHT22;794;48.592;9.634;2022-12-24T02:46:01;10.20;1.00
1602;DHT22;794;48.592;9.634;2022-12-24T02:48:29;10.30;1.00
1602;DHT22;794;48.592;9.634;2022-12-24T02:51:05;10.30;1.00
1602;DHT22;794;48.592;9.634;2022-12-24T02:53:34;10.50;1.00
1602;DHT22;794;48.592;9.634;2022-12-24T02:56:34;10.30;1.00
1602;DHT22;794;48.592;9.634;2022-12-24T02:59:21;10.30;1.00
1602;DHT22;794;48.592;9.634;2022-12-24T03:01:59;10.40;1.00
1602;DHT22;794;48.592;9.634;2022-12-24T03:04:36;10.80;1.00
1602;DHT22;794;48.592;9.634;2022-12-24T03:07:15;10.40;1.00
1602;DHT22;794;48.592;9.634;2022-12-24T03:10:02;10.30;1.00
1602;DHT22;794;48.592;9.634;2022-12-24T03:12:34;10.50;1.00
1602;DHT22;794;48.592;9.634;2022-12-24T03:15:07;10.20;1.00
1602;DHT22;794;48.592;9.634;2022-12-24T03:17:37;10.60;1.00
1602;DHT22;794;48.592;9.634;2022-12-24T03:20:08;10.60;1.00
1602;DHT22;794;48.592;9.634;2022-12-24T03:22:37;10.90;1.00
1602;DHT22;794;48.592;9.634;2022-12-24T03:25:05;10.40;1.00
1602;DHT22;794;48.592;9.634;2022-12-24T03:27:33;10.40;1.00
1602;DHT22;794;48.592;9.634;2022-12-24T03:30:02;10.50;1.00
1602;DHT22;794;48.592;9.634;2022-12-24T03:32:30;10.60;1.00
1602;DHT22;794;48.592;9.634;2022-12-24T03:34:59;10.40;1.00
1602;DHT22;794;48.592;9.634;2022-12-24T03:37:27;10.90;1.00
1602;DHT22;794;48.592;9.634;2022-12-24T03:39:54;10.60;1.00
1602;DHT22;794;48.592;9.634;2022-12-24T03:42:21;8.20;1.00
1602;DHT22;794;48.592;9.634;2022-12-24T03:44:48;9.90;1.00
1602;DHT22;794;48.592;9.634;2022-12-24T03:47:15;10.20;1.00
1602;DHT22;794;48.592;9.634;2022-12-24T03:49:42;10.00;1.00
1602;DHT22;794;48.592;9.634;2022-12-24T03:52:10;10.20;1.00
1602;DHT22;794;48.592;9.634;2022-12-24T03:54:37;9.90;1.00
1602;DHT22;794;48.592;9.634;2022-12-24T03:57:04;9.80;1.00
1602;DHT22;794;48.592;9.634;2022-12-24T03:59:31;9.40;1.00
1602;DHT22;794;48.592;9.634;2022-12-24T04:01:58;9.70;1.00
1602;DHT22;794;48.592;9.634;2022-12-24T04:04:25;10.00;1.00
1602;DHT22;794;48.592;9.634;2022-12-24T04:06:52;9.60;1.00
1602;DHT22;794;48.592;9.634;2022-12-24T04:09:21;9.90;1.00
1602;DHT22;794;48.592;9.634;2022-12-24T04:11:48;10.00;1.00
1602;DHT22;794;48.592;9.634;2022-12-24T04:14:15;9.70;1.00
1602;DHT22;794;48.592;9.634;2022-12-24T04:16:42;9.40;1.00
1602;DHT22;794;48.592;9.634;2022-12-24T04:19:09;9.50;1.00
1602;DHT22;794;48.592;9.634;2022-12-24T04:21:36;9.60;1.00
1602;DHT22;794;48.592;9.634;2022-12-24T04:24:03;9.90;1.00
1602;DHT22;794;48.592;9.634;2022-12-24T04:26:32;9.70;1.00
1602;DHT22;794;48.592;9.634;2022-12-24T04:28:59;9.90;1.00
1602;DHT22;794;48.592;9.634;2022-12-24T04:31:26;9.70;1.00
1602;DHT22;794;48.592;9.634;2022-12-24T04:33:54;9.60;1.00
1602;DHT22;794;48.592;9.634;2022-12-24T04:36:21;9.80;1.00
1602;DHT22;794;48.592;9.634;2022-12-24T04:38:48;10.00;1.00
1602;DHT22;794;48.592;9.634;2022-12-24T04:41:17;10.00;1.00
1602;DHT22;794;48.592;9.634;2022-12-24T04:43:46;9.70;1.00
1602;DHT22;794;48.592;9.634;2022-12-24T04:46:15;10.10;1.00
1602;DHT22;794;48.592;9.634;2022-12-24T04:48:43;9.90;1.00
1602;DHT22;794;48.592;9.634;2022-12-24T04:51:11;9.90;1.00
1602;DHT22;794;48.592;9.634;2022-12-24T04:53:39;10.00;1.00
1602;DHT22;794;48.592;9.634;2022-12-24T04:56:07;9.90;1.00
1602;DHT22;794;48.592;9.634;2022-12-24T04:58:34;9.70;1.00
1602;DHT22;794;48.592;9.634;2022-12-24T05:01:04;9.70;1.00
1602;DHT22;794;48.592;9.634;2022-12-24T05:03:31;9.70;1.00
1602;DHT22;794;48.592;9.634;2022-12-24T05:06:01;9.60;1.00
1602;DHT22;794;48.592;9.634;2022-12-24T05:08:28;9.70;1.00
1602;DHT22;794;48.592;9.634;2022-12-24T05:10:56;9.60;1.00
1602;DHT22;794;48.592;9.634;2022-12-24T05:13:23;9.50;1.00
1602;DHT22;794;48.592;9.634;2022-12-24T05:15:50;9.50;1.00
1602;DHT22;794;48.592;9.634;2022-12-24T05:18:18;9.70;1.00
1602;DHT22;794;48.592;9.634;2022-12-24T05:20:46;9.90;1.00
1602;DHT22;794;48.592;9.634;2022-12-24T05:23:15;9.90;1.00
1602;DHT22;794;48.592;9.634;2022-12-24T05:25:59;9.50;1.00
1602;DHT22;794;48.592;9.634;2022-12-24T05:28:43;9.50;1.00
1602;DHT22;794;48.592;9.634;2022-12-24T05:31:10;9.60;1.00
1602;DHT22;794;48.592;9.634;2022-12-24T05:33:39;9.60;1.00
1602;DHT22;794;48.592;9.634;2022-12-24T05:36:07;9.60;1.00
1602;DHT22;794;48.592;9.634;2022-12-24T05:38:34;9.50;1.00
1602;DHT22;794;48.592;9.634;2022-12-24T05:41:01;10.30;1.00
1602;DHT22;794;48.592;9.634;2022-12-24T05:43:28;9.80;1.00
1602;DHT22;794;48.592;9.634;2022-12-24T05:45:57;9.90;1.00
1602;DHT22;794;48.592;9.634;2022-12-24T05:48:24;10.00;1.00
1602;DHT22;794;48.592;9.634;2022-12-24T05:50:53;9.70;1.00
1602;DHT22;794;48.592;9.634;2022-12-24T05:53:21;9.60;1.00
1602;DHT22;794;48.592;9.634;2022-12-24T05:55:48;9.50;1.00
1602;DHT22;794;48.592;9.634;2022-12-24T05:58:15;9.70;1.00
1602;DHT22;794;48.592;9.634;2022-12-24T06:00:42;9.90;1.00
1602;DHT22;794;48.592;9.634;2022-12-24T06:03:09;9.60;1.00
1602;DHT22;794;48.592;9.634;2022-12-24T06:05:36;9.50;1.00
1602;DHT22;794;48.592;9.634;2022-12-24T06:08:07;9.70;1.00
1602;DHT22;794;48.592;9.634;2022-12-24T06:10:34;9.60;1.00
1602;DHT22;794;48.592;9.634;2022-12-24T06:13:01;9.50;1.00
1602;DHT22;794;48.592;9.634;2022-12-24T06:15:28;9.60;1.00
1602;DHT22;794;48.592;9.634;2022-12-24T06:17:55;9.30;1.00
1602;DHT22;794;48.592;9.634;2022-12-24T06:20:22;9.20;1.00
1602;DHT22;794;48.592;9.634;2022-12-24T06:22:49;9.30;1.00
1602;DHT22;794;48.592;9.634;2022-12-24T06:25:17;9.30;1.00
1602;DHT22;794;48.592;9.634;2022-12-24T06:27:44;9.50;1.00
1602;DHT22;794;48.592;9.634;2022-12-24T06:30:12;9.20;1.00
1602;DHT22;794;48.592;9.634;2022-12-24T06:32:39;9.30;1.00
1602;DHT22;794;48.592;9.634;2022-12-24T06:35:06;9.70;1.00
1602;DHT22;794;48.592;9.634;2022-12-24T06:37:33;9.30;1.00
1602;DHT22;794;48.592;9.634;2022-12-24T06:40:00;9.60;1.00
1602;DHT22;794;48.592;9.634;2022-12-24T06:42:29;9.70;1.00
1602;DHT22;794;48.592;9.634;2022-12-24T06:47:23;9.40;1.00
1602;DHT22;794;48.592;9.634;2022-12-24T06:49:50;9.50;1.00
1602;DHT22;794;48.592;9.634;2022-12-24T06:52:17;9.40;1.00
1602;DHT22;794;48.592;9.634;2022-12-24T06:54:44;9.40;1.00
1602;DHT22;794;48.592;9.634;2022-12-24T06:57:11;9.60;1.00
1602;DHT22;794;48.592;9.634;2022-12-24T06:59:39;9.10;1.00
1602;DHT22;794;48.592;9.634;2022-12-24T07:02:08;9.20;1.00
1602;DHT22;794;48.592;9.634;2022-12-24T07:04:35;9.40;1.00
1602;DHT22;794;48.592;9.634;2022-12-24T07:07:02;9.30;1.00
1602;DHT22;794;48.592;9.634;2022-12-24T07:09:30;9.40;1.00
1602;DHT22;794;48.592;9.634;2022-12-24T07:11:58;9.00;1.00
1602;DHT22;794;48.592;9.634;2022-12-24T07:14:25;9.10;1.00
1602;DHT22;794;48.592;9.634;2022-12-24T07:16:53;9.30;1.00
1602;DHT22;794;48.592;9.634;2022-12-24T07:19:22;9.80;1.00
1602;DHT22;794;48.592;9.634;2022-12-24T07:21:49;9.20;1.00
1602;DHT22;794;48.592;9.634;2022-12-24T07:24:16;9.60;1.00
1602;DHT22;794;48.592;9.634;2022-12-24T07:26:43;9.40;1.00
1602;DHT22;794;48.592;9.634;2022-12-24T07:29:10;9.40;1.00
1602;DHT22;794;48.592;9.634;2022-12-24T07:31:37;9.30;1.00
1602;DHT22;794;48.592;9.634;2022-12-24T07:34:05;9.30;1.00
1602;DHT22;794;48.592;9.634;2022-12-24T07:36:33;9.40;1.00
1602;DHT22;794;48.592;9.634;2022-12-24T07:39:00;9.60;1.00
1602;DHT22;794;48.592;9.634;2022-12-24T07:41:27;9.50;1.00
1602;DHT22;794;48.592;9.634;2022-12-24T07:43:54;10.20;1.00
1602;DHT22;794;48.592;9.634;2022-12-24T07:46:21;9.70;1.00
1602;DHT22;794;48.592;9.634;2022-12-24T07:48:48;9.90;1.00
1602;DHT22;794;48.592;9.634;2022-12-24T07:54:39;9.80;1.00
1602;DHT22;794;48.592;9.634;2022-12-24T07:57:07;9.80;1.00
1602;DHT22;794;48.592;9.634;2022-12-24T07:59:34;10.20;1.00
1602;DHT22;794;48.592;9.634;2022-12-24T08:02:01;8.50;1.00
1602;DHT22;794;48.592;9.634;2022-12-24T08:04:30;9.70;1.00
1602;DHT22;794;48.592;9.634;2022-12-24T08:06:58;9.80;1.00
1602;DHT22;794;48.592;9.634;2022-12-24T08:09:25;10.20;1.00
1602;DHT22;794;48.592;9.634;2022-12-24T08:11:53;10.40;1.00
1602;DHT22;794;48.592;9.634;2022-12-24T08:14:20;10.00;1.00
1602;DHT22;794;48.592;9.634;2022-12-24T08:16:47;10.10;1.00
1602;DHT22;794;48.592;9.634;2022-12-24T08:19:14;10.60;1.00
1602;DHT22;794;48.592;9.634;2022-12-24T08:21:41;10.10;1.00
1602;DHT22;794;48.592;9.634;2022-12-24T08:24:08;10.10;1.00
1602;DHT22;794;48.592;9.634;2022-12-24T08:26:35;9.90;1.00
1602;DHT22;794;48.592;9.634;2022-12-24T08:29:04;10.30;1.00
1602;DHT22;794;48.592;9.634;2022-12-24T08:31:32;10.00;1.00
1602;DHT22;794;48.592;9.634;2022-12-24T08:34:01;10.20;1.00
1602;DHT22;794;48.592;9.634;2022-12-24T08:36:28;9.80;1.00
1602;DHT22;794;48.592;9.634;2022-12-24T08:38:55;9.90;1.00
1602;DHT22;794;48.592;9.634;2022-12-24T08:41:22;10.70;1.00
1602;DHT22;794;48.592;9.634;2022-12-24T08:43:49;10.40;1.00
1602;DHT22;794;48.592;9.634;2022-12-24T08:46:18;9.90;1.00
1602;DHT22;794;48.592;9.634;2022-12-24T08:48:45;10.10;1.00
1602;DHT22;794;48.592;9.634;2022-12-24T08:51:12;10.00;1.00
1602;DHT22;794;48.592;9.634;2022-12-24T08:53:39;10.40;1.00
1602;DHT22;794;48.592;9.634;2022-12-24T08:56:08;10.40;1.00
1602;DHT22;794;48.592;9.634;2022-12-24T08:58:35;10.20;1.00
1602;DHT22;794;48.592;9.634;2022-12-24T09:01:10;10.20;1.00
1602;DHT22;794;48.592;9.634;2022-12-24T09:03:38;10.10;1.00
1602;DHT22;794;48.592;9.634;2022-12-24T09:06:06;10.40;1.00
1602;DHT22;794;48.592;9.634;2022-12-24T09:08:34;10.40;1.00
1602;DHT22;794;48.592;9.634;2022-12-24T09:11:03;10.10;1.00
1602;DHT22;794;48.592;9.634;2022-12-24T09:13:30;10.30;1.00
1602;DHT22;794;48.592;9.634;2022-12-24T09:15:58;10.30;1.00
1602;DHT22;794;48.592;9.634;2022-12-24T09:18:25;10.40;1.00
1602;DHT22;794;48.592;9.634;2022-12-24T09:20:59;10.40;1.00
1602;DHT22;794;48.592;9.634;2022-12-24T09:23:27;10.50;1.00
1602;DHT22;794;48.592;9.634;2022-12-24T09:25:54;10.80;1.00
1602;DHT22;794;48.592;9.634;2022-12-24T09:28:22;10.50;1.00
1602;DHT22;794;48.592;9.634;2022-12-24T09:30:57;10.90;1.00
1602;DHT22;794;48.592;9.634;2022-12-24T09:33:24;11.00;1.00
1602;DHT22;794;48.592;9.634;2022-12-24T09:35:52;11.50;1.00
1602;DHT22;794;48.592;9.634;2022-12-24T09:38:21;11.60;1.00
1602;DHT22;794;48.592;9.634;2022-12-24T09:40:48;12.70;1.00
1602;DHT22;794;48.592;9.634;2022-12-24T09:43:18;12.20;1.00
1602;DHT22;794;48.592;9.634;2022-12-24T09:45:52;12.60;1.00
1602;DHT22;794;48.592;9.634;2022-12-24T09:48:23;12.80;1.00
1602;DHT22;794;48.592;9.634;2022-12-24T09:50:53;12.40;1.00
1602;DHT22;794;48.592;9.634;2022-12-24T09:53:27;12.30;1.00
1602;DHT22;794;48.592;9.634;2022-12-24T09:55:57;11.70;1.00
1602;DHT22;794;48.592;9.634;2022-12-24T09:58:28;11.70;1.00
1602;DHT22;794;48.592;9.634;2022-12-24T10:00:56;11.60;1.00
1602;DHT22;794;48.592;9.634;2022-12-24T10:03:23;11.60;1.00
1602;DHT22;794;48.592;9.634;2022-12-24T10:05:58;11.70;1.00
1602;DHT22;794;48.592;9.634;2022-12-24T10:08:33;10.90;1.00
1602;DHT22;794;48.592;9.634;2022-12-24T10:11:09;11.00;1.00
1602;DHT22;794;48.592;9.634;2022-12-24T10:13:50;10.80;1.00
1602;DHT22;794;48.592;9.634;2022-12-24T10:16:25;11.30;1.00
1602;DHT22;794;48.592;9.634;2022-12-24T10:18:58;12.20;1.00
1602;DHT22;794;48.592;9.634;2022-12-24T10:21:38;11.90;1.00
1602;DHT22;794;48.592;9.634;2022-12-24T10:24:14;12.50;1.00
1602;DHT22;794;48.592;9.634;2022-12-24T10:26:44;12.60;1.00
1602;DHT22;794;48.592;9.634;2022-12-24T10:29:15;13.10;1.00
1602;DHT22;794;48.592;9.634;2022-12-24T10:31:49;13.20;1.00
1602;DHT22;794;48.592;9.634;2022-12-24T10:34:21;13.20;1.00
1602;DHT22;794;48.592;9.634;2022-12-24T10:36:48;12.90;1.00
1602;DHT22;794;48.592;9.634;2022-12-24T10:39:19;13.00;1.00
1602;DHT22;794;48.592;9.634;2022-12-24T10:41:48;12.70;1.00
1602;DHT22;794;48.592;9.634;2022-12-24T10:44:18;12.40;1.00
1602;DHT22;794;48.592;9.634;2022-12-24T10:46:47;12.10;1.00
1602;DHT22;794;48.592;9.634;2022-12-24T10:49:15;11.70;1.00
1602;DHT22;794;48.592;9.634;2022-12-24T10:51:46;11.80;1.00
1602;DHT22;794;48.592;9.634;2022-12-24T10:54:18;11.80;1.00
1602;DHT22;794;48.592;9.634;2022-12-24T10:56:47;12.00;1.00
1602;DHT22;794;48.592;9.634;2022-12-24T10:59:26;11.90;1.00
1602;DHT22;794;48.592;9.634;2022-12-24T11:01:54;11.80;1.00
1602;DHT22;794;48.592;9.634;2022-12-24T11:04:23;12.10;1.00
1602;DHT22;794;48.592;9.634;2022-12-24T11:06:52;11.70;1.00
1602;DHT22;794;48.592;9.634;2022-12-24T11:09:23;11.80;1.00
1602;DHT22;794;48.592;9.634;2022-12-24T11:11:50;11.50;1.00
1602;DHT22;794;48.592;9.634;2022-12-24T11:14:18;11.50;1.00
1602;DHT22;794;48.592;9.634;2022-12-24T11:16:50;11.70;1.00
1602;DHT22;794;48.592;9.634;2022-12-24T11:19:25;11.60;1.00
1602;DHT22;794;48.592;9.634;2022-12-24T11:22:00;12.00;1.00
1602;DHT22;794;48.592;9.634;2022-12-24T11:24:30;11.40;1.00
1602;DHT22;794;48.592;9.634;2022-12-24T11:27:23;11.70;1.00
1602;DHT22;794;48.592;9.634;2022-12-24T11:30:21;11.40;1.00
1602;DHT22;794;48.592;9.634;2022-12-24T11:32:50;11.40;1.00
1602;DHT22;794;48.592;9.634;2022-12-24T11:35:40;11.20;1.00
1602;DHT22;794;48.592;9.634;2022-12-24T11:38:10;11.50;1.00
1602;DHT22;794;48.592;9.634;2022-12-24T11:40:41;11.20;1.00
1602;DHT22;794;48.592;9.634;2022-12-24T11:43:14;11.40;1.00
1602;DHT22;794;48.592;9.634;2022-12-24T11:45:47;11.40;1.00
1602;DHT22;794;48.592;9.634;2022-12-24T11:48:27;11.10;1.00
1602;DHT22;794;48.592;9.634;2022-12-24T11:50:56;11.10;1.00
1602;DHT22;794;48.592;9.634;2022-12-24T11:53:25;11.30;1.00
1602;DHT22;794;48.592;9.634;2022-12-24T11:55:55;11.20;1.00
1602;DHT22;794;48.592;9.634;2022-12-24T11:58:27;11.40;1.00
1602;DHT22;794;48.592;9.634;2022-12-24T12:01:02;9.50;1.00
1602;DHT22;794;48.592;9.634;2022-12-24T12:03:34;11.60;1.00
1602;DHT22;794;48.592;9.634;2022-12-24T12:06:10;11.70;1.00
1602;DHT22;794;48.592;9.634;2022-12-24T12:08:40;11.20;1.00
1602;DHT22;794;48.592;9.634;2022-12-24T12:11:11;11.30;1.00
1602;DHT22;794;48.592;9.634;2022-12-24T12:13:42;11.70;1.00
1602;DHT22;794;48.592;9.634;2022-12-24T12:16:16;11.40;1.00
1602;DHT22;794;48.592;9.634;2022-12-24T12:18:51;11.30;1.00
1602;DHT22;794;48.592;9.634;2022-12-24T12:21:23;11.40;1.00
1602;DHT22;794;48.592;9.634;2022-12-24T12:23:53;11.40;1.00
1602;DHT22;794;48.592;9.634;2022-12-24T12:26:25;11.20;1.00
1602;DHT22;794;48.592;9.634;2022-12-24T12:28:55;11.10;1.00
1602;DHT22;794;48.592;9.634;2022-12-24T12:31:27;11.20;1.00
1602;DHT22;794;48.592;9.634;2022-12-24T12:34:02;11.30;1.00
1602;DHT22;794;48.592;9.634;2022-12-24T12:36:38;11.70;1.00
1602;DHT22;794;48.592;9.634;2022-12-24T12:39:08;11.20;1.00
1602;DHT22;794;48.592;9.634;2022-12-24T12:41:48;12.00;1.00
1602;DHT22;794;48.592;9.634;2022-12-24T12:47:42;11.30;1.00
1602;DHT22;794;48.592;9.634;2022-12-24T12:50:18;11.70;1.00
1602;DHT22;794;48.592;9.634;2022-12-24T12:52:58;11.50;1.00
1602;DHT22;794;48.592;9.634;2022-12-24T12:55:38;11.80;1.00
1602;DHT22;794;48.592;9.634;2022-12-24T12:58:14;11.80;1.00
1602;DHT22;794;48.592;9.634;2022-12-24T13:00:43;11.80;1.00
1602;DHT22;794;48.592;9.634;2022-12-24T13:06:29;11.90;1.00
1602;DHT22;794;48.592;9.634;2022-12-24T13:09:21;11.80;1.00
1602;DHT22;794;48.592;9.634;2022-12-24T13:12:09;11.70;1.00
1602;DHT22;794;48.592;9.634;2022-12-24T13:15:01;11.60;1.00
1602;DHT22;794;48.592;9.634;2022-12-24T13:17:55;12.20;1.00
1602;DHT22;794;48.592;9.634;2022-12-24T13:20:26;10.00;1.00
1602;DHT22;794;48.592;9.634;2022-12-24T13:22:57;11.60;1.00
1602;DHT22;794;48.592;9.634;2022-12-24T13:25:35;12.20;1.00
1602;DHT22;794;48.592;9.634;2022-12-24T13:28:17;11.80;1.00
1602;DHT22;794;48.592;9.634;2022-12-24T13:31:24;11.80;1.00
1602;DHT22;794;48.592;9.634;2022-12-24T13:33:53;12.00;1.00
1602;DHT22;794;48.592;9.634;2022-12-24T13:36:21;11.60;1.00
1602;DHT22;794;48.592;9.634;2022-12-24T13:38:49;11.30;1.00
1602;DHT22;794;48.592;9.634;2022-12-24T13:41:48;11.80;1.00
1602;DHT22;794;48.592;9.634;2022-12-24T13:44:21;11.30;1.00
1602;DHT22;794;48.592;9.634;2022-12-24T13:46:52;11.90;1.00
1602;DHT22;794;48.592;9.634;2022-12-24T13:49:27;11.80;1.00
1602;DHT22;794;48.592;9.634;2022-12-24T13:52:20;11.40;1.00
1602;DHT22;794;48.592;9.634;2022-12-24T13:55:00;11.50;1.00
1602;DHT22;794;48.592;9.634;2022-12-24T13:57:32;11.70;1.00
1602;DHT22;794;48.592;9.634;2022-12-24T14:00:03;11.40;1.00
1602;DHT22;794;48.592;9.634;2022-12-24T14:02:37;11.60;1.00
1602;DHT22;794;48.592;9.634;2022-12-24T14:05:16;11.60;1.00
1602;DHT22;794;48.592;9.634;2022-12-24T14:07:46;11.60;1.00
1602;DHT22;794;48.592;9.634;2022-12-24T14:10:20;11.50;1.00
1602;DHT22;794;48.592;9.634;2022-12-24T14:12:49;11.50;1.00
1602;DHT22;794;48.592;9.634;2022-12-24T14:18:37;11.00;1.00
1602;DHT22;794;48.592;9.634;2022-12-24T14:21:06;11.10;1.00
1602;DHT22;794;48.592;9.634;2022-12-24T14:23:52;10.90;1.00
1602;DHT22;794;48.592;9.634;2022-12-24T14:26:22;12.90;1.00
1602;DHT22;794;48.592;9.634;2022-12-24T14:28:54;11.00;1.00
1602;DHT22;794;48.592;9.634;2022-12-24T14:31:22;11.10;1.00
1602;DHT22;794;48.592;9.634;2022-12-24T14:33:50;11.20;1.00
1602;DHT22;794;48.592;9.634;2022-12-24T14:36:21;11.20;1.00
1602;DHT22;794;48.592;9.634;2022-12-24T14:38:49;11.10;1.00
1602;DHT22;794;48.592;9.634;2022-12-24T14:41:30;11.20;1.00
1602;DHT22;794;48.592;9.634;2022-12-24T14:44:07;11.10;1.00
1602;DHT22;794;48.592;9.634;2022-12-24T14:46:42;10.70;1.00
1602;DHT22;794;48.592;9.634;2022-12-24T14:49:22;10.70;1.00
1602;DHT22;794;48.592;9.634;2022-12-24T14:52:01;11.00;1.00
1602;DHT22;794;48.592;9.634;2022-12-24T14:54:34;11.50;1.00
1602;DHT22;794;48.592;9.634;2022-12-24T14:57:21;11.00;1.00
1602;DHT22;794;48.592;9.634;2022-12-24T14:59:50;10.90;1.00
1602;DHT22;794;48.592;9.634;2022-12-24T15:02:37;10.90;1.00
1602;DHT22;794;48.592;9.634;2022-12-24T15:05:18;11.20;1.00
1602;DHT22;794;48.592;9.634;2022-12-24T15:07:47;10.60;1.00
1602;DHT22;794;48.592;9.634;2022-12-24T15:10:24;10.60;1.00
1602;DHT22;794;48.592;9.634;2022-12-24T15:12:53;10.20;1.00
1602;DHT22;794;48.592;9.634;2022-12-24T15:15:28;10.50;1.00
1602;DHT22;794;48.592;9.634;2022-12-24T15:18:00;10.30;1.00
1602;DHT22;794;48.592;9.634;2022-12-24T15:20:31;9.50;1.00
1602;DHT22;794;48.592;9.634;2022-12-24T15:22:59;9.90;1.00
1602;DHT22;794;48.592;9.634;2022-12-24T15:25:29;9.80;1.00
1602;DHT22;794;48.592;9.634;2022-12-24T15:27:58;10.20;1.00
1602;DHT22;794;48.592;9.634;2022-12-24T15:30:28;10.10;1.00
1602;DHT22;794;48.592;9.634;2022-12-24T15:32:59;10.00;1.00
1602;DHT22;794;48.592;9.634;2022-12-24T15:35:52;9.70;1.00
1602;DHT22;794;48.592;9.634;2022-12-24T15:38:31;9.80;1.00
1602;DHT22;794;48.592;9.634;2022-12-24T15:41:00;9.30;1.00
1602;DHT22;794;48.592;9.634;2022-12-24T15:43:29;9.20;1.00
1602;DHT22;794;48.592;9.634;2022-12-24T15:45:57;9.30;1.00
1602;DHT22;794;48.592;9.634;2022-12-24T15:48:26;9.30;1.00
1602;DHT22;794;48.592;9.634;2022-12-24T15:50:57;9.40;1.00
1602;DHT22;794;48.592;9.634;2022-12-24T15:53:27;9.10;1.00
1602;DHT22;794;48.592;9.634;2022-12-24T15:56:04;9.00;1.00
1602;DHT22;794;48.592;9.634;2022-12-24T15:58:34;8.90;1.00
1602;DHT22;794;48.592;9.634;2022-12-24T16:01:03;9.00;1.00
1602;DHT22;794;48.592;9.634;2022-12-24T16:03:31;9.10;1.00
1602;DHT22;794;48.592;9.634;2022-12-24T16:06:00;8.90;1.00
1602;DHT22;794;48.592;9.634;2022-12-24T16:08:29;8.70;1.00
1602;DHT22;794;48.592;9.634;2022-12-24T16:11:21;9.00;1.00
1602;DHT22;794;48.592;9.634;2022-12-24T16:14:11;8.90;1.00
1602;DHT22;794;48.592;9.634;2022-12-24T16:16:40;8.40;1.00
1602;DHT22;794;48.592;9.634;2022-12-24T16:19:16;8.30;1.00
1602;DHT22;794;48.592;9.634;2022-12-24T16:21:50;8.80;1.00
1602;DHT22;794;48.592;9.634;2022-12-24T16:24:20;8.60;1.00
1602;DHT22;794;48.592;9.634;2022-12-24T16:26:47;8.80;1.00
1602;DHT22;794;48.592;9.634;2022-12-24T16:29:15;9.00;1.00
1602;DHT22;794;48.592;9.634;2022-12-24T16:31:46;8.90;1.00
1602;DHT22;794;48.592;9.634;2022-12-24T16:34:15;9.00;1.00
1602;DHT22;794;48.592;9.634;2022-12-24T16:36:45;9.10;1.00
1602;DHT22;794;48.592;9.634;2022-12-24T16:39:15;9.00;1.00
1602;DHT22;794;48.592;9.634;2022-12-24T16:41:49;9.30;1.00
1602;DHT22;794;48.592;9.634;2022-12-24T16:44:34;8.80;1.00
1602;DHT22;794;48.592;9.634;2022-12-24T16:47:01;9.10;1.00
1602;DHT22;794;48.592;9.634;2022-12-24T16:49:29;9.40;1.00
1602;DHT22;794;48.592;9.634;2022-12-24T16:51:58;9.10;1.00
1602;DHT22;794;48.592;9.634;2022-12-24T16:54:25;9.30;1.00
1602;DHT22;794;48.592;9.634;2022-12-24T16:56:53;9.30;1.00
1602;DHT22;794;48.592;9.634;2022-12-24T16:59:22;9.10;1.00
1602;DHT22;794;48.592;9.634;2022-12-24T17:01:50;9.40;1.00
1602;DHT22;794;48.592;9.634;2022-12-24T17:04:17;9.30;1.00
1602;DHT22;794;48.592;9.634;2022-12-24T17:06:46;9.60;1.00
1602;DHT22;794;48.592;9.634;2022-12-24T17:09:15;9.50;1.00
1602;DHT22;794;48.592;9.634;2022-12-24T17:11:43;9.80;1.00
1602;DHT22;794;48.592;9.634;2022-12-24T17:14:11;9.60;1.00
1602;DHT22;794;48.592;9.634;2022-12-24T17:16:38;9.80;1.00
1602;DHT22;794;48.592;9.634;2022-12-24T17:19:05;9.70;1.00
1602;DHT22;794;48.592;9.634;2022-12-24T17:21:33;10.10;1.00
1602;DHT22;794;48.592;9.634;2022-12-24T17:24:00;9.70;1.00